createdAt,value
2018-03-17T00:01:30.579Z,4.00
2018-03-17T00:03:58.808Z,3.90
2018-03-17T00:06:27.081Z,3.90
2018-03-17T00:08:56.078Z,3.90
2018-03-17T00:11:25.824Z,3.80
2018-03-17T00:13:54.363Z,3.90
2018-03-17T00:16:22.996Z,3.80
2018-03-17T00:18:51.220Z,3.90
2018-03-17T00:21:19.488Z,3.90
2018-03-17T00:23:47.724Z,3.90
2018-03-17T00:26:15.956Z,3.90
2018-03-17T00:28:45.004Z,3.80
2018-03-17T00:31:13.636Z,3.80
2018-03-17T00:33:41.872Z,3.80
2018-03-17T00:36:10.132Z,3.70
2018-03-17T00:38:38.365Z,3.70
2018-03-17T00:41:06.601Z,3.70
2018-03-17T00:43:37.265Z,3.70
2018-03-17T00:46:07.056Z,3.70
2018-03-17T00:48:35.288Z,3.70
2018-03-17T00:51:04.684Z,3.70
2018-03-17T00:53:32.921Z,3.70
2018-03-17T00:56:01.959Z,3.60
2018-03-17T00:58:30.217Z,3.50
2018-03-17T01:00:59.220Z,3.50
2018-03-17T01:03:27.484Z,3.60
2018-03-17T01:05:55.769Z,3.60
2018-03-17T01:08:24.761Z,3.60
2018-03-17T01:13:22.725Z,3.50
2018-03-17T01:18:20.424Z,3.50
2018-03-17T01:20:48.676Z,3.50
2018-03-17T01:23:17.304Z,3.40
2018-03-17T01:28:15.034Z,3.50
2018-03-17T01:30:43.265Z,3.40
2018-03-17T01:33:11.532Z,3.30
2018-03-17T01:35:39.768Z,3.30
2018-03-17T01:38:08.001Z,3.20
2018-03-17T01:40:37.025Z,3.20
2018-03-17T01:43:05.257Z,3.20
2018-03-17T01:45:33.511Z,3.20
2018-03-17T01:48:02.540Z,3.20
2018-03-17T01:50:31.172Z,3.20
2018-03-17T01:52:59.401Z,3.20
2018-03-17T01:55:27.668Z,3.20
2018-03-17T01:57:55.896Z,3.10
2018-03-17T02:00:24.525Z,3.10
2018-03-17T02:02:52.793Z,3.10
2018-03-17T02:05:21.025Z,3.00
2018-03-17T02:07:49.264Z,3.10
2018-03-17T02:10:18.304Z,3.10
2018-03-17T02:12:46.536Z,3.10
2018-03-17T02:15:14.768Z,3.10
2018-03-17T02:17:43.800Z,3.10
2018-03-17T02:20:12.808Z,3.00
2018-03-17T02:22:41.036Z,3.00
2018-03-17T02:25:09.633Z,3.00
2018-03-17T02:30:08.092Z,3.00
2018-03-17T02:32:36.592Z,3.00
2018-03-17T02:37:34.282Z,3.00
2018-03-17T02:40:02.563Z,3.00
2018-03-17T02:42:30.789Z,2.90
2018-03-17T02:44:59.021Z,2.90
2018-03-17T02:49:56.753Z,3.00
2018-03-17T02:52:24.989Z,2.90
2018-03-17T02:54:53.245Z,2.90
2018-03-17T02:57:22.240Z,2.80
2018-03-17T02:59:50.501Z,2.80
2018-03-17T03:02:18.777Z,2.80
2018-03-17T03:04:47.783Z,2.70
2018-03-17T03:07:16.785Z,2.70
2018-03-17T03:09:45.040Z,2.70
2018-03-17T03:12:13.262Z,2.70
2018-03-17T03:14:41.488Z,2.70
2018-03-17T03:17:09.913Z,2.80
2018-03-17T03:19:39.291Z,2.70
2018-03-17T03:22:07.512Z,2.70
2018-03-17T03:24:35.804Z,2.70
2018-03-17T03:27:04.032Z,2.80
2018-03-17T03:29:32.252Z,2.80
2018-03-17T03:32:02.029Z,2.70
2018-03-17T03:34:30.261Z,2.60
2018-03-17T03:36:58.496Z,2.70
2018-03-17T03:39:26.765Z,2.70
2018-03-17T03:41:54.992Z,2.70
2018-03-17T03:44:23.617Z,2.60
2018-03-17T03:46:52.773Z,2.60
2018-03-17T03:49:21.007Z,2.60
2018-03-17T03:51:49.232Z,2.70
2018-03-17T03:54:17.506Z,2.60
2018-03-17T03:56:45.737Z,2.60
2018-03-17T03:59:13.957Z,2.60
2018-03-17T04:01:42.232Z,2.60
2018-03-17T04:04:10.464Z,2.60
2018-03-17T04:06:39.457Z,2.60
2018-03-17T04:09:07.732Z,2.60
2018-03-17T04:11:35.961Z,2.70
2018-03-17T04:14:04.188Z,2.60
2018-03-17T04:19:01.912Z,2.60
2018-03-17T04:21:30.143Z,2.50
2018-03-17T04:23:58.416Z,2.40
2018-03-17T04:26:26.644Z,2.40
2018-03-17T04:28:54.877Z,2.40
2018-03-17T04:31:24.108Z,2.30
2018-03-17T04:33:52.736Z,2.30
2018-03-17T04:36:21.356Z,2.40
2018-03-17T04:38:49.644Z,2.40
2018-03-17T04:41:17.864Z,2.30
2018-03-17T04:43:46.092Z,2.30
2018-03-17T04:46:14.358Z,2.20
2018-03-17T04:48:43.356Z,2.20
2018-03-17T04:51:11.584Z,2.30
2018-03-17T04:53:39.864Z,2.30
2018-03-17T04:56:08.089Z,2.20
2018-03-17T04:58:36.319Z,2.20
2018-03-17T05:01:04.579Z,2.30
2018-03-17T05:03:32.807Z,2.30
2018-03-17T05:06:02.168Z,2.30
2018-03-17T05:08:31.204Z,2.30
2018-03-17T05:13:28.896Z,2.20
2018-03-17T05:15:57.844Z,2.10
2018-03-17T05:18:26.836Z,2.20
2018-03-17T05:20:55.068Z,2.20
2018-03-17T05:23:23.328Z,2.20
2018-03-17T05:25:51.584Z,2.10
2018-03-17T05:28:19.813Z,2.10
2018-03-17T05:30:48.103Z,2.00
2018-03-17T05:33:16.387Z,2.10
2018-03-17T05:40:44.409Z,1.90
2018-03-17T05:43:12.638Z,1.90
2018-03-17T05:45:42.040Z,1.90
2018-03-17T05:48:10.263Z,1.90
2018-03-17T05:50:38.489Z,1.80
2018-03-17T05:53:06.749Z,1.80
2018-03-17T05:55:34.977Z,1.80
2018-03-17T05:58:04.368Z,1.90
2018-03-17T06:00:32.621Z,1.90
2018-03-17T06:03:00.844Z,1.90
2018-03-17T06:07:58.992Z,1.70
2018-03-17T06:10:27.224Z,1.80
2018-03-17T06:12:55.454Z,1.80
2018-03-17T06:15:24.488Z,1.70
2018-03-17T06:17:53.488Z,1.70
2018-03-17T06:20:22.489Z,1.70
2018-03-17T06:22:51.121Z,1.70
2018-03-17T06:27:48.800Z,1.60
2018-03-17T06:30:17.061Z,1.60
2018-03-17T06:32:45.289Z,1.60
2018-03-17T06:35:13.908Z,1.60
2018-03-17T06:37:42.164Z,1.60
2018-03-17T06:40:11.160Z,1.60
2018-03-17T06:42:39.768Z,1.60
2018-03-17T06:45:09.541Z,1.50
2018-03-17T06:47:37.761Z,1.60
2018-03-17T06:50:05.979Z,1.60
2018-03-17T06:52:35.016Z,1.70
2018-03-17T06:55:03.265Z,1.60
2018-03-17T06:57:32.288Z,1.60
2018-03-17T07:00:00.541Z,1.60
2018-03-17T07:02:30.265Z,1.60
2018-03-17T07:04:59.013Z,1.50
2018-03-17T07:07:27.629Z,1.60
2018-03-17T07:12:25.738Z,1.50
2018-03-17T07:14:54.000Z,1.50
2018-03-17T07:17:22.220Z,1.50
2018-03-17T07:19:50.441Z,1.50
2018-03-17T07:22:18.704Z,1.50
2018-03-17T07:24:46.928Z,1.60
2018-03-17T07:27:15.180Z,1.60
2018-03-17T07:29:43.448Z,1.60
2018-03-17T07:32:11.665Z,1.60
2018-03-17T07:34:40.657Z,1.50
2018-03-17T07:37:08.941Z,1.50
2018-03-17T07:39:37.193Z,1.50
2018-03-17T07:42:05.821Z,1.50
2018-03-17T07:44:34.472Z,1.50
2018-03-17T07:47:03.513Z,1.50
2018-03-17T07:49:31.737Z,1.40
2018-03-17T07:54:30.600Z,1.40
2018-03-17T07:56:58.825Z,1.40
2018-03-17T07:59:27.049Z,1.40
2018-03-17T08:01:56.060Z,1.30
2018-03-17T08:04:24.288Z,1.30
2018-03-17T08:06:52.541Z,1.30
2018-03-17T08:09:20.793Z,1.30
2018-03-17T08:11:49.024Z,1.30
2018-03-17T08:14:17.292Z,1.30
2018-03-17T08:16:45.512Z,1.30
2018-03-17T08:19:15.245Z,1.30
2018-03-17T08:21:44.276Z,1.30
2018-03-17T08:24:12.901Z,1.30
2018-03-17T08:26:41.129Z,1.20
2018-03-17T08:29:10.529Z,1.20
2018-03-17T08:31:39.517Z,1.20
2018-03-17T08:34:08.516Z,1.20
2018-03-17T08:36:37.528Z,1.20
2018-03-17T08:39:05.761Z,1.20
2018-03-17T08:41:34.752Z,1.20
2018-03-17T08:44:03.008Z,1.20
2018-03-17T08:46:31.236Z,1.20
2018-03-17T08:49:00.234Z,1.20
2018-03-17T08:51:28.513Z,1.20
2018-03-17T08:53:56.757Z,1.20
2018-03-17T08:56:24.985Z,1.20
2018-03-17T08:58:53.279Z,1.30
2018-03-17T09:01:21.484Z,1.30
2018-03-17T09:03:49.716Z,1.20
2018-03-17T09:06:17.980Z,1.30
2018-03-17T09:08:46.208Z,1.30
2018-03-17T09:11:15.199Z,1.20
2018-03-17T09:13:43.494Z,1.10
2018-03-17T09:16:11.701Z,1.10
2018-03-17T09:18:39.929Z,1.00
2018-03-17T09:21:09.693Z,1.10
2018-03-17T09:23:38.684Z,1.00
2018-03-17T09:26:07.680Z,1.30
2018-03-17T09:28:35.961Z,1.60
2018-03-17T09:31:04.193Z,1.70
2018-03-17T09:33:33.181Z,1.80
2018-03-17T09:36:01.440Z,1.80
2018-03-17T09:38:30.434Z,1.80
2018-03-17T09:40:58.656Z,1.70
2018-03-17T09:43:26.913Z,1.60
2018-03-17T09:45:55.140Z,1.60
2018-03-17T09:48:24.906Z,1.50
2018-03-17T09:50:53.137Z,1.50
2018-03-17T09:53:21.360Z,1.50
2018-03-17T09:55:49.624Z,1.40
2018-03-17T09:58:17.894Z,1.40
2018-03-17T10:00:46.068Z,1.30
2018-03-17T10:03:14.330Z,1.30
2018-03-17T10:05:42.544Z,1.30
2018-03-17T10:08:10.764Z,1.30
2018-03-17T10:13:08.489Z,1.30
2018-03-17T10:15:36.715Z,1.40
2018-03-17T10:18:06.121Z,1.30
2018-03-17T10:20:34.340Z,1.30
2018-03-17T10:23:03.325Z,1.30
2018-03-17T10:40:30.999Z,1.60
2018-03-17T10:42:59.997Z,1.50
2018-03-17T10:45:28.212Z,1.50
2018-03-17T10:47:57.236Z,1.50
2018-03-17T10:50:26.229Z,1.60
2018-03-17T10:52:54.487Z,1.70
2018-03-17T10:55:22.760Z,1.60
2018-03-17T10:57:51.757Z,1.60
2018-03-17T11:00:25.720Z,1.60
2018-03-17T11:02:54.704Z,1.50
2018-03-17T11:05:26.917Z,1.60
2018-03-17T11:10:24.996Z,1.60
2018-03-17T11:12:53.273Z,1.60
2018-03-17T11:15:22.264Z,1.70
2018-03-17T11:17:50.488Z,1.70
2018-03-17T11:20:19.545Z,1.80
2018-03-17T11:22:47.769Z,1.80
2018-03-17T11:25:15.988Z,1.80
2018-03-17T11:27:47.917Z,1.90
2018-03-17T11:30:16.143Z,1.80
2018-03-17T11:32:44.365Z,1.80
2018-03-17T11:35:12.629Z,1.90
2018-03-17T11:37:40.857Z,1.90
2018-03-17T11:42:38.568Z,2.00
2018-03-17T11:45:06.801Z,2.00
2018-03-17T11:47:35.021Z,1.90
2018-03-17T11:50:04.049Z,1.80
2018-03-17T11:52:33.036Z,1.70
2018-03-17T11:55:01.261Z,1.80
2018-03-17T11:57:29.525Z,1.70
2018-03-17T11:59:57.749Z,1.70
2018-03-17T12:02:25.976Z,1.70
2018-03-17T12:04:55.766Z,1.70
2018-03-17T12:07:24.398Z,1.80
2018-03-17T12:09:52.613Z,1.90
2018-03-17T12:12:22.004Z,1.90
2018-03-17T12:14:51.007Z,1.90
2018-03-17T12:17:19.221Z,1.90
2018-03-17T12:19:48.251Z,1.90
2018-03-17T12:22:16.477Z,1.90
2018-03-17T12:24:45.470Z,1.90
2018-03-17T12:27:13.745Z,1.80
2018-03-17T12:29:41.968Z,1.80
2018-03-17T12:32:10.590Z,1.80
2018-03-17T12:34:38.873Z,1.80
2018-03-17T12:37:07.100Z,1.70
2018-03-17T12:39:35.327Z,1.70
2018-03-17T12:42:04.341Z,1.80
2018-03-17T12:44:33.337Z,1.90
2018-03-17T12:47:01.600Z,1.90
2018-03-17T12:49:29.820Z,1.90
2018-03-17T12:51:58.048Z,1.90
2018-03-17T12:54:26.563Z,1.80
2018-03-17T12:56:55.929Z,1.70
2018-03-17T12:59:24.157Z,1.70
2018-03-17T13:01:52.413Z,1.70
2018-03-17T13:04:20.641Z,1.80
2018-03-17T13:06:48.921Z,1.80
2018-03-17T13:09:17.140Z,1.80
2018-03-17T13:11:46.873Z,1.80
2018-03-17T13:14:15.585Z,1.90
2018-03-17T13:16:43.804Z,1.70
2018-03-17T13:19:23.929Z,1.70
2018-03-17T13:21:52.112Z,1.60
2018-03-17T13:24:20.328Z,1.70
2018-03-17T13:27:01.173Z,1.70
2018-03-17T13:29:30.570Z,1.50
2018-03-17T13:31:58.801Z,1.50
2018-03-17T13:34:28.200Z,1.50
2018-03-17T13:37:08.341Z,1.50
2018-03-17T13:39:36.584Z,1.40
2018-03-17T13:42:04.837Z,1.30
2018-03-17T13:44:33.057Z,1.30
2018-03-17T13:47:02.308Z,1.40
2018-03-17T13:49:30.538Z,1.40
2018-03-17T13:51:58.756Z,1.40
2018-03-17T13:54:27.413Z,1.30
2018-03-17T13:56:55.640Z,1.40
2018-03-17T13:59:23.868Z,1.40
2018-03-17T14:01:52.126Z,1.40
2018-03-17T14:04:20.352Z,1.50
2018-03-17T14:06:48.972Z,1.50
2018-03-17T14:09:17.629Z,1.50
2018-03-17T14:11:47.352Z,1.50
2018-03-17T14:14:16.349Z,1.40
2018-03-17T14:16:44.600Z,1.40
2018-03-17T14:19:12.821Z,1.40
2018-03-17T14:21:41.044Z,1.40
2018-03-17T14:24:09.696Z,1.30
2018-03-17T14:26:38.312Z,1.30
2018-03-17T14:29:07.308Z,1.30
2018-03-17T14:31:36.333Z,1.30
2018-03-17T14:34:04.551Z,1.20
2018-03-17T14:36:32.764Z,1.10
2018-03-17T14:39:01.448Z,1.10
2018-03-17T14:41:29.676Z,1.10
2018-03-17T14:43:58.664Z,1.10
2018-03-17T14:46:26.963Z,1.10
2018-03-17T14:48:55.180Z,1.10
2018-03-17T14:51:24.172Z,1.10
2018-03-17T14:53:52.444Z,1.00
2018-03-17T14:56:21.436Z,1.10
2018-03-17T14:58:50.423Z,1.10
2018-03-17T15:01:18.673Z,1.10
2018-03-17T15:03:46.889Z,1.20
2018-03-17T15:06:15.917Z,1.20
2018-03-17T15:08:44.131Z,1.20
2018-03-17T15:11:12.752Z,1.20
2018-03-17T15:13:41.024Z,1.20
2018-03-17T15:16:09.240Z,1.30
2018-03-17T15:18:38.228Z,1.20
2018-03-17T15:21:06.488Z,1.20
2018-03-17T15:26:04.471Z,1.10
2018-03-17T15:28:33.869Z,1.10
2018-03-17T15:31:03.223Z,1.10
2018-03-17T15:33:31.831Z,1.20
2018-03-17T15:36:00.256Z,1.20
2018-03-17T15:38:28.480Z,1.20
2018-03-17T15:40:56.701Z,1.30
2018-03-17T15:43:25.364Z,1.20
2018-03-17T15:45:54.352Z,1.20
2018-03-17T15:48:23.712Z,1.10
2018-03-17T15:50:53.156Z,1.20
2018-03-17T15:53:22.152Z,1.10
2018-03-17T15:55:50.392Z,1.20
2018-03-17T15:58:19.425Z,1.20
2018-03-17T16:00:47.656Z,1.20
2018-03-17T16:03:15.870Z,1.20
2018-03-17T16:05:44.128Z,1.10
2018-03-17T16:08:13.112Z,1.00
2018-03-17T16:10:41.340Z,1.00
2018-03-17T16:13:09.594Z,1.00
2018-03-17T16:15:37.816Z,1.10
2018-03-17T16:18:06.044Z,1.10
2018-03-17T16:20:34.309Z,1.10
2018-03-17T16:23:02.529Z,1.10
2018-03-17T16:25:31.176Z,1.10
2018-03-17T16:27:59.844Z,1.00
2018-03-17T16:30:28.069Z,0.90
2018-03-17T16:32:56.288Z,0.90
2018-03-17T16:35:24.544Z,0.90
2018-03-17T16:37:52.764Z,0.80
2018-03-17T16:40:21.002Z,0.80
2018-03-17T16:42:49.392Z,0.80
2018-03-17T16:45:17.674Z,0.80
2018-03-17T16:47:47.446Z,0.90
2018-03-17T16:50:16.757Z,0.80
2018-03-17T16:55:14.443Z,0.90
2018-03-17T17:00:12.974Z,0.80
2018-03-17T17:02:41.200Z,0.80
2018-03-17T17:05:10.276Z,0.70
2018-03-17T17:07:38.537Z,0.60
2018-03-17T17:10:07.192Z,0.60
2018-03-17T17:12:35.492Z,0.50
2018-03-17T17:15:03.932Z,0.60
2018-03-17T17:17:32.600Z,0.60
2018-03-17T17:20:01.694Z,0.60
2018-03-17T17:22:36.386Z,0.60
2018-03-17T17:25:06.112Z,0.60
2018-03-17T17:27:34.332Z,0.60
2018-03-17T17:30:02.668Z,0.60
2018-03-17T17:32:30.936Z,0.60
2018-03-17T17:34:59.165Z,0.60
2018-03-17T17:37:27.400Z,0.70
2018-03-17T17:39:56.428Z,0.70
2018-03-17T17:42:25.420Z,0.70
2018-03-17T17:44:53.818Z,0.70
2018-03-17T17:47:22.112Z,0.70
2018-03-17T17:49:50.344Z,0.70
2018-03-17T17:52:19.340Z,0.70
2018-03-17T17:57:17.650Z,0.80
2018-03-17T17:59:45.828Z,0.70
2018-03-17T18:02:14.919Z,0.70
2018-03-17T18:04:43.185Z,0.60
2018-03-17T18:07:11.828Z,0.70
2018-03-17T18:14:40.277Z,0.60
2018-03-17T18:17:09.260Z,0.70
2018-03-17T18:19:37.520Z,0.70
2018-03-17T18:22:05.788Z,0.60
2018-03-17T18:24:34.980Z,0.60
2018-03-17T18:27:03.255Z,0.70
2018-03-17T18:29:31.546Z,0.60
2018-03-17T18:32:00.989Z,0.60
2018-03-17T18:34:29.256Z,0.60
2018-03-17T18:36:57.880Z,0.70
2018-03-17T18:41:55.801Z,0.60
2018-03-17T18:44:24.028Z,0.60
2018-03-17T18:49:21.920Z,0.70
2018-03-17T18:51:50.148Z,0.70
2018-03-17T18:54:18.367Z,0.70
2018-03-17T18:56:46.671Z,0.70
2018-03-17T18:59:16.488Z,0.70
2018-03-17T19:06:43.895Z,0.70
2018-03-17T19:09:12.249Z,0.70
2018-03-17T19:11:40.472Z,0.70
2018-03-17T19:14:08.692Z,0.70
2018-03-17T19:16:37.108Z,0.60
2018-03-17T19:19:05.453Z,0.70
2018-03-17T19:21:33.709Z,0.70
2018-03-17T19:24:02.024Z,0.70
2018-03-17T19:26:30.260Z,0.70
2018-03-17T19:28:59.308Z,0.70
2018-03-17T19:31:28.344Z,0.70
2018-03-17T19:33:56.570Z,0.70
2018-03-17T19:36:24.804Z,0.70
2018-03-17T19:41:22.616Z,0.70
2018-03-17T19:46:20.499Z,0.80
2018-03-17T19:48:48.723Z,0.80
2018-03-17T19:51:17.163Z,0.80
2018-03-17T19:53:45.445Z,0.80
2018-03-17T19:56:13.750Z,0.80
2018-03-17T19:58:42.120Z,0.70
2018-03-17T20:01:11.156Z,0.80
2018-03-17T20:03:40.243Z,0.80
2018-03-17T20:08:38.032Z,0.80
2018-03-17T20:11:07.760Z,0.90
2018-03-17T20:13:36.145Z,0.90
2018-03-17T20:16:06.177Z,0.60
2018-03-17T20:18:34.622Z,0.90
2018-03-17T20:21:04.001Z,0.90
2018-03-17T20:23:35.829Z,0.90
2018-03-17T20:26:04.044Z,0.90
2018-03-17T20:28:33.033Z,0.90
2018-03-17T20:31:01.308Z,0.80
2018-03-17T20:33:30.668Z,0.90
2018-03-17T20:35:58.897Z,0.90
2018-03-17T20:38:27.986Z,1.00
2018-03-17T20:40:56.688Z,1.00
2018-03-17T20:43:25.800Z,1.00
2018-03-17T20:45:54.265Z,0.90
2018-03-17T20:48:24.024Z,1.00
2018-03-17T20:50:53.163Z,1.00
2018-03-17T20:53:21.535Z,1.00
2018-03-17T20:55:49.766Z,1.00
2018-03-17T20:58:18.765Z,1.00
2018-03-17T21:00:47.796Z,1.00
2018-03-17T21:03:16.025Z,1.10
2018-03-17T21:05:44.649Z,1.10
2018-03-17T21:08:12.916Z,1.10
2018-03-17T21:10:41.195Z,1.10
2018-03-17T21:13:10.189Z,1.10
2018-03-17T21:18:08.558Z,1.10
2018-03-17T21:20:36.784Z,1.10
2018-03-17T21:23:05.281Z,1.10
2018-03-17T21:25:33.544Z,1.10
2018-03-17T21:28:01.809Z,1.00
2018-03-17T21:30:30.305Z,1.00
2018-03-17T21:32:58.950Z,1.00
2018-03-17T21:35:27.193Z,1.10
2018-03-17T21:38:00.984Z,1.10
2018-03-17T21:40:29.212Z,1.10
2018-03-17T21:42:58.192Z,1.20
2018-03-17T21:45:26.515Z,1.20
2018-03-17T21:47:56.241Z,1.10
2018-03-17T21:50:24.665Z,1.10
2018-03-17T21:52:54.068Z,1.10
2018-03-17T21:55:22.529Z,1.10
2018-03-17T21:57:52.476Z,1.20
2018-03-17T22:02:50.787Z,1.20
2018-03-17T22:05:19.829Z,1.10
2018-03-17T22:07:48.479Z,1.20
2018-03-17T22:10:16.860Z,1.10
2018-03-17T22:12:45.346Z,1.10
2018-03-17T22:15:15.100Z,1.10
2018-03-17T22:17:43.362Z,1.10
2018-03-17T22:20:11.616Z,1.10
2018-03-17T22:22:39.865Z,1.10
2018-03-17T22:25:08.157Z,1.20
2018-03-17T22:27:36.545Z,1.10
2018-03-17T22:30:04.831Z,1.20
2018-03-17T22:32:34.564Z,1.10
2018-03-17T22:35:03.272Z,1.10
2018-03-17T22:37:31.884Z,1.10
2018-03-17T22:40:00.855Z,1.10
2018-03-17T22:42:29.120Z,1.10
2018-03-17T22:44:57.581Z,1.10
2018-03-17T22:47:26.590Z,1.10
2018-03-17T22:49:54.873Z,1.10
2018-03-17T22:52:23.104Z,1.10
2018-03-17T22:54:52.840Z,1.10
2018-03-17T22:57:21.204Z,1.10
2018-03-17T23:02:18.970Z,1.20
2018-03-17T23:04:47.249Z,1.20
2018-03-17T23:12:14.685Z,1.20
2018-03-17T23:14:44.428Z,1.20
2018-03-17T23:17:12.665Z,1.20
2018-03-17T23:19:40.924Z,1.30
2018-03-17T23:22:09.916Z,1.20
2018-03-17T23:24:38.144Z,1.20
2018-03-17T23:27:06.425Z,1.30
2018-03-17T23:29:34.648Z,1.30
2018-03-17T23:32:02.872Z,1.20
2018-03-17T23:34:31.140Z,1.30
2018-03-17T23:37:00.504Z,1.30
2018-03-17T23:39:28.728Z,1.30
2018-03-17T23:41:56.994Z,1.20
2018-03-17T23:44:25.224Z,1.20
2018-03-17T23:46:54.216Z,1.30
2018-03-17T23:49:23.244Z,1.30
2018-03-17T23:51:51.480Z,1.30
2018-03-17T23:54:19.709Z,1.30
2018-03-17T23:56:48.464Z,1.20
2018-03-17T23:59:16.692Z,1.20
